createdAt,value
2022-09-30T00:01:50.942Z,9.60
2022-09-30T00:04:21.702Z,9.60
2022-09-30T00:06:51.816Z,9.60
2022-09-30T00:09:21.848Z,9.50
2022-09-30T00:11:51.660Z,9.40
2022-09-30T00:14:21.764Z,9.40
2022-09-30T00:16:50.350Z,9.40
2022-09-30T00:19:18.617Z,9.40
2022-09-30T00:21:46.738Z,9.30
2022-09-30T00:24:15.030Z,9.20
2022-09-30T00:26:43.380Z,9.20
2022-09-30T00:29:13.210Z,9.20
2022-09-30T00:31:41.301Z,9.20
2022-09-30T00:34:11.428Z,9.20
2022-09-30T00:36:44.238Z,9.20
2022-09-30T00:39:14.782Z,9.20
2022-09-30T00:41:43.159Z,9.50
2022-09-30T00:44:55.730Z,9.30
2022-09-30T00:47:43.506Z,9.40
2022-09-30T00:50:32.998Z,9.40
2022-09-30T00:53:08.982Z,9.40
2022-09-30T00:55:48.671Z,9.40
2022-09-30T00:58:22.414Z,9.60
2022-09-30T01:00:52.984Z,9.60
2022-09-30T01:03:23.225Z,9.50
2022-09-30T01:05:52.612Z,9.40
2022-09-30T01:08:21.893Z,9.40
2022-09-30T01:10:49.880Z,9.40
2022-09-30T01:13:20.171Z,9.40
2022-09-30T01:16:14.468Z,9.40
2022-09-30T01:18:56.064Z,9.30
2022-09-30T01:21:58.516Z,9.30
2022-09-30T01:25:02.345Z,9.20
2022-09-30T01:27:54.289Z,9.20
2022-09-30T01:30:24.334Z,9.30
2022-09-30T01:33:07.619Z,9.20
2022-09-30T01:35:51.173Z,9.20
2022-09-30T01:38:28.518Z,9.10
2022-09-30T01:41:05.767Z,9.00
2022-09-30T01:43:45.483Z,9.00
2022-09-30T01:46:23.150Z,9.00
2022-09-30T01:49:01.095Z,9.00
2022-09-30T01:51:36.219Z,9.00
2022-09-30T01:54:10.965Z,9.00
2022-09-30T01:56:43.375Z,9.10
2022-09-30T01:59:16.626Z,9.10
2022-09-30T02:01:50.664Z,9.00
2022-09-30T02:04:25.149Z,9.00
2022-09-30T02:06:58.180Z,9.00
2022-09-30T02:09:30.200Z,9.10
2022-09-30T02:12:03.246Z,9.20
2022-09-30T02:14:36.327Z,9.20
2022-09-30T02:17:09.761Z,9.10
2022-09-30T02:19:42.671Z,9.00
2022-09-30T02:22:16.267Z,9.00
2022-09-30T02:24:47.285Z,9.00
2022-09-30T02:27:20.064Z,9.00
2022-09-30T02:29:54.565Z,9.00
2022-09-30T02:32:26.553Z,8.90
2022-09-30T02:34:59.024Z,8.90
2022-09-30T02:37:32.349Z,8.90
2022-09-30T02:40:10.837Z,8.90
2022-09-30T02:42:41.550Z,9.00
2022-09-30T02:45:11.926Z,9.00
2022-09-30T02:47:55.731Z,8.90
2022-09-30T02:50:31.588Z,8.90
2022-09-30T02:53:11.853Z,9.00
2022-09-30T02:55:50.033Z,9.10
2022-09-30T02:58:21.015Z,9.00
2022-09-30T03:00:49.877Z,9.00
2022-09-30T03:03:22.533Z,9.00
2022-09-30T03:05:52.361Z,9.20
2022-09-30T03:08:20.524Z,9.10
2022-09-30T03:10:51.351Z,9.00
2022-09-30T03:13:48.396Z,8.90
2022-09-30T03:16:29.720Z,8.90
2022-09-30T03:19:12.296Z,8.80
2022-09-30T03:21:57.024Z,8.90
2022-09-30T03:24:41.214Z,9.10
2022-09-30T03:27:15.761Z,8.90
2022-09-30T03:29:53.042Z,8.90
2022-09-30T03:32:35.298Z,9.00
2022-09-30T03:35:14.400Z,8.80
2022-09-30T03:37:52.463Z,8.80
2022-09-30T03:40:31.931Z,8.80
2022-09-30T03:43:06.364Z,8.80
2022-09-30T03:45:40.453Z,8.70
2022-09-30T03:48:11.781Z,8.70
2022-09-30T03:50:41.946Z,8.90
2022-09-30T03:53:13.342Z,9.10
2022-09-30T03:55:48.898Z,9.20
2022-09-30T03:58:17.578Z,9.00
2022-09-30T04:00:50.115Z,8.90
2022-09-30T04:03:19.737Z,8.90
2022-09-30T04:05:48.103Z,8.90
2022-09-30T04:08:17.863Z,9.10
2022-09-30T04:10:46.155Z,8.80
2022-09-30T04:13:14.320Z,9.00
2022-09-30T04:15:42.425Z,9.00
2022-09-30T04:18:10.569Z,9.00
2022-09-30T04:20:39.850Z,8.90
2022-09-30T04:23:08.014Z,9.00
2022-09-30T04:25:37.405Z,8.90
2022-09-30T04:28:17.563Z,8.80
2022-09-30T04:30:45.562Z,8.90
2022-09-30T04:33:13.870Z,8.90
2022-09-30T04:35:42.124Z,8.90
2022-09-30T04:38:10.354Z,9.00
2022-09-30T04:40:40.218Z,8.90
2022-09-30T04:43:08.280Z,8.90
2022-09-30T04:45:36.626Z,8.90
2022-09-30T04:48:04.856Z,8.80
2022-09-30T04:50:32.864Z,8.80
2022-09-30T04:53:01.024Z,8.80
2022-09-30T04:55:29.048Z,8.90
2022-09-30T04:57:58.498Z,8.90
2022-09-30T05:00:26.895Z,8.90
2022-09-30T05:02:55.178Z,8.90
2022-09-30T05:05:23.263Z,9.00
2022-09-30T05:07:51.326Z,9.00
2022-09-30T05:10:19.573Z,9.10
2022-09-30T05:12:47.615Z,9.10
2022-09-30T05:15:17.046Z,9.10
2022-09-30T05:17:45.236Z,9.00
2022-09-30T05:20:15.675Z,9.10
2022-09-30T05:22:45.725Z,8.90
2022-09-30T05:25:13.848Z,8.90
2022-09-30T05:27:41.966Z,8.90
2022-09-30T05:30:10.993Z,8.90
2022-09-30T05:32:40.362Z,9.00
2022-09-30T05:35:09.488Z,9.00
2022-09-30T05:37:37.539Z,9.00
2022-09-30T05:40:06.385Z,9.00
2022-09-30T05:42:36.054Z,9.00
2022-09-30T05:45:04.355Z,9.00
2022-09-30T05:47:32.454Z,9.00
2022-09-30T05:50:01.947Z,9.00
2022-09-30T05:52:30.694Z,9.20
2022-09-30T05:55:01.122Z,9.20
2022-09-30T05:57:29.720Z,9.20
2022-09-30T05:59:58.192Z,9.20
2022-09-30T06:02:26.543Z,9.20
2022-09-30T06:04:54.695Z,9.20
2022-09-30T06:07:24.198Z,9.20
2022-09-30T06:09:52.197Z,9.30
2022-09-30T06:12:20.284Z,9.30
2022-09-30T06:14:48.308Z,9.30
2022-09-30T06:17:19.314Z,9.40
2022-09-30T06:19:47.586Z,9.30
2022-09-30T06:22:16.269Z,9.40
2022-09-30T06:24:45.671Z,9.40
2022-09-30T06:27:13.684Z,9.50
2022-09-30T06:29:42.063Z,9.50
2022-09-30T06:32:10.230Z,9.40
2022-09-30T06:34:38.642Z,9.20
2022-09-30T06:37:07.233Z,9.20
2022-09-30T06:39:35.492Z,9.10
2022-09-30T06:42:05.170Z,9.20
2022-09-30T06:44:37.935Z,9.20
2022-09-30T06:47:23.298Z,9.30
2022-09-30T06:49:54.616Z,9.30
2022-09-30T06:52:22.603Z,9.30
2022-09-30T06:54:51.413Z,9.40
2022-09-30T06:57:22.972Z,9.60
2022-09-30T06:59:51.216Z,9.50
2022-09-30T07:02:19.936Z,9.60
2022-09-30T07:04:48.347Z,9.60
2022-09-30T07:07:16.361Z,9.70
2022-09-30T07:09:44.578Z,9.70
2022-09-30T07:12:12.737Z,9.80
2022-09-30T07:14:42.314Z,9.90
2022-09-30T07:17:10.932Z,9.90
2022-09-30T07:19:39.251Z,10.00
2022-09-30T07:22:24.671Z,10.00
2022-09-30T07:24:52.737Z,10.10
2022-09-30T07:27:21.512Z,10.00
2022-09-30T07:30:08.140Z,10.20
2022-09-30T07:32:37.516Z,10.10
2022-09-30T07:35:06.533Z,10.20
2022-09-30T07:37:36.092Z,10.20
2022-09-30T07:40:05.491Z,10.40
2022-09-30T07:42:33.565Z,10.30
2022-09-30T07:45:02.966Z,10.30
2022-09-30T07:47:30.942Z,10.40
2022-09-30T07:49:59.695Z,10.40
2022-09-30T07:52:27.703Z,10.50
2022-09-30T07:54:55.978Z,10.60
2022-09-30T07:57:24.069Z,10.70
2022-09-30T07:59:52.236Z,10.70
2022-09-30T08:02:21.679Z,10.80
2022-09-30T08:04:49.755Z,10.70
2022-09-30T08:07:20.016Z,10.70
2022-09-30T08:09:48.144Z,10.80
2022-09-30T08:12:16.595Z,11.00
2022-09-30T08:14:45.674Z,11.00
2022-09-30T08:17:14.146Z,11.00
2022-09-30T08:19:44.801Z,10.90
2022-09-30T08:22:13.971Z,11.00
2022-09-30T08:24:42.254Z,11.20
2022-09-30T08:27:10.366Z,11.20
2022-09-30T08:29:55.886Z,11.20
2022-09-30T08:32:24.782Z,11.30
2022-09-30T08:34:54.132Z,11.40
2022-09-30T08:37:22.247Z,11.60
2022-09-30T08:39:50.396Z,11.70
2022-09-30T08:42:41.304Z,11.80
2022-09-30T08:45:21.122Z,11.80
2022-09-30T08:47:56.907Z,12.00
2022-09-30T08:50:34.142Z,12.10
2022-09-30T08:53:06.926Z,12.10
2022-09-30T08:55:40.903Z,12.00
2022-09-30T08:58:17.793Z,12.20
2022-09-30T09:00:46.066Z,12.30
2022-09-30T09:03:15.416Z,12.40
2022-09-30T09:05:55.929Z,12.50
2022-09-30T09:08:35.922Z,13.00
2022-09-30T09:11:14.228Z,13.80
2022-09-30T09:13:52.175Z,14.30
2022-09-30T09:16:26.363Z,14.90
2022-09-30T09:19:00.409Z,15.20
2022-09-30T09:21:48.650Z,15.60
2022-09-30T09:24:19.415Z,16.00
2022-09-30T09:26:48.990Z,16.40
2022-09-30T09:29:39.730Z,16.50
2022-09-30T09:32:14.242Z,16.90
2022-09-30T09:34:42.905Z,17.30
2022-09-30T09:37:21.625Z,17.30
2022-09-30T09:40:07.888Z,17.30
2022-09-30T09:42:57.963Z,17.30
2022-09-30T09:45:32.399Z,17.30
2022-09-30T09:48:01.351Z,17.70
2022-09-30T09:50:38.701Z,18.20
2022-09-30T09:53:22.308Z,18.50
2022-09-30T09:55:55.017Z,19.00
2022-09-30T09:58:23.338Z,18.80
2022-09-30T10:01:25.716Z,18.50
2022-09-30T10:04:11.061Z,18.80
2022-09-30T10:07:00.969Z,18.20
2022-09-30T10:09:33.563Z,18.20
2022-09-30T10:12:35.941Z,17.90
2022-09-30T10:15:15.652Z,17.70
2022-09-30T10:17:43.737Z,18.30
2022-09-30T10:20:24.146Z,18.80
2022-09-30T10:23:00.928Z,18.80
2022-09-30T10:25:30.973Z,18.10
2022-09-30T10:28:00.807Z,17.90
2022-09-30T10:30:35.191Z,18.10
2022-09-30T10:33:04.658Z,18.60
2022-09-30T10:35:32.652Z,19.00
2022-09-30T10:38:01.567Z,19.30
2022-09-30T10:40:31.778Z,19.60
2022-09-30T10:43:00.042Z,19.70
2022-09-30T10:45:34.113Z,19.90
2022-09-30T10:48:08.447Z,20.30
2022-09-30T10:50:36.542Z,20.60
2022-09-30T10:53:12.355Z,20.60
2022-09-30T10:55:45.707Z,20.60
2022-09-30T10:58:24.838Z,19.90
2022-09-30T11:00:58.472Z,19.60
2022-09-30T11:03:33.358Z,19.60
2022-09-30T11:06:01.972Z,19.90
2022-09-30T11:08:37.218Z,20.00
2022-09-30T11:11:14.083Z,19.80
2022-09-30T11:13:44.625Z,20.30
2022-09-30T11:16:20.899Z,20.90
2022-09-30T11:18:53.546Z,21.60
2022-09-30T11:21:25.034Z,22.20
2022-09-30T11:23:59.149Z,22.50
2022-09-30T11:26:38.892Z,22.60
2022-09-30T11:29:22.253Z,22.90
2022-09-30T11:31:56.726Z,23.30
2022-09-30T11:34:46.967Z,23.20
2022-09-30T11:37:26.880Z,21.70
2022-09-30T11:40:12.470Z,21.80
2022-09-30T11:42:48.704Z,22.00
2022-09-30T11:45:30.521Z,21.90
2022-09-30T11:48:18.678Z,21.60
2022-09-30T11:50:54.646Z,21.50
2022-09-30T11:53:32.674Z,21.60
2022-09-30T11:56:13.889Z,20.40
2022-09-30T11:58:48.989Z,20.00
2022-09-30T12:01:28.756Z,20.40
2022-09-30T12:04:02.095Z,20.70
2022-09-30T12:06:36.694Z,20.80
2022-09-30T12:09:15.420Z,19.90
2022-09-30T12:11:50.212Z,20.00
2022-09-30T12:14:25.053Z,21.00
2022-09-30T12:16:53.646Z,21.60
2022-09-30T12:19:27.860Z,22.00
2022-09-30T12:22:01.589Z,21.20
2022-09-30T12:24:35.701Z,21.20
2022-09-30T12:27:05.847Z,21.60
2022-09-30T12:29:57.501Z,21.70
2022-09-30T12:32:47.207Z,21.90
2022-09-30T12:35:37.897Z,21.50
2022-09-30T12:38:21.574Z,21.10
2022-09-30T12:41:00.408Z,21.20
2022-09-30T12:44:01.644Z,21.50
2022-09-30T12:46:50.923Z,21.60
2022-09-30T12:49:23.634Z,21.70
2022-09-30T12:51:56.499Z,22.00
2022-09-30T12:54:28.476Z,21.90
2022-09-30T12:57:00.647Z,22.10
2022-09-30T12:59:33.135Z,22.60
2022-09-30T13:02:05.014Z,22.90
2022-09-30T13:04:36.653Z,22.80
2022-09-30T13:07:23.239Z,23.10
2022-09-30T13:10:18.963Z,23.20
2022-09-30T13:12:47.779Z,23.20
2022-09-30T13:15:41.757Z,23.30
2022-09-30T13:18:47.450Z,23.60
2022-09-30T13:21:22.615Z,23.90
2022-09-30T13:23:51.960Z,24.00
2022-09-30T13:26:40.459Z,24.10
2022-09-30T13:29:49.732Z,24.30
2022-09-30T13:32:34.156Z,24.00
2022-09-30T13:35:02.175Z,23.30
2022-09-30T13:37:36.153Z,22.70
2022-09-30T13:40:07.412Z,22.10
2022-09-30T13:42:42.788Z,22.20
2022-09-30T13:45:17.368Z,22.00
2022-09-30T13:47:48.978Z,22.20
2022-09-30T13:50:20.702Z,22.30
2022-09-30T13:52:53.868Z,22.10
2022-09-30T13:55:26.596Z,21.70
2022-09-30T13:58:06.399Z,21.00
2022-09-30T14:00:47.657Z,20.80
2022-09-30T14:03:38.804Z,20.60
2022-09-30T14:06:19.367Z,20.70
2022-09-30T14:09:04.268Z,20.80
2022-09-30T14:11:54.226Z,20.70
2022-09-30T14:14:55.727Z,20.30
2022-09-30T14:17:44.769Z,19.40
2022-09-30T14:20:35.835Z,19.10
2022-09-30T14:23:05.218Z,18.70
2022-09-30T14:25:43.118Z,18.70
2022-09-30T14:28:16.951Z,18.60
2022-09-30T14:31:06.604Z,18.40
2022-09-30T14:33:35.466Z,18.40
2022-09-30T14:36:09.204Z,18.30
2022-09-30T14:38:37.798Z,18.20
2022-09-30T14:41:15.215Z,18.10
2022-09-30T14:43:46.107Z,18.00
2022-09-30T14:46:23.510Z,17.90
2022-09-30T14:48:53.135Z,18.00
2022-09-30T14:51:23.814Z,18.40
2022-09-30T14:53:56.583Z,18.70
2022-09-30T14:56:30.700Z,19.00
2022-09-30T14:59:00.887Z,19.30
2022-09-30T15:01:32.601Z,19.50
2022-09-30T15:04:04.278Z,19.70
2022-09-30T15:06:34.892Z,19.80
2022-09-30T15:09:06.312Z,19.80
2022-09-30T15:11:39.750Z,19.60
2022-09-30T15:14:15.304Z,19.40
2022-09-30T15:16:47.574Z,19.40
2022-09-30T15:19:21.164Z,19.30
2022-09-30T15:21:50.672Z,19.30
2022-09-30T15:24:20.389Z,19.30
2022-09-30T15:26:50.802Z,19.40
2022-09-30T15:29:19.177Z,19.30
2022-09-30T15:31:49.843Z,19.20
2022-09-30T15:34:23.375Z,19.20
2022-09-30T15:37:00.425Z,19.10
2022-09-30T15:39:51.546Z,19.00
2022-09-30T15:42:31.990Z,18.90
2022-09-30T15:45:00.036Z,18.70
2022-09-30T15:47:29.118Z,18.40
2022-09-30T15:49:57.210Z,18.40
2022-09-30T15:52:37.792Z,18.00
2022-09-30T15:55:37.770Z,17.70
2022-09-30T15:58:37.904Z,17.50
2022-09-30T16:01:15.781Z,17.30
2022-09-30T16:03:50.847Z,17.20
2022-09-30T16:06:25.500Z,16.90
2022-09-30T16:09:01.598Z,17.00
2022-09-30T16:11:34.833Z,16.70
2022-09-30T16:14:06.786Z,16.60
2022-09-30T16:16:37.741Z,16.40
2022-09-30T16:19:07.302Z,16.20
2022-09-30T16:21:44.808Z,16.10
2022-09-30T16:24:46.964Z,15.90
2022-09-30T16:27:31.396Z,15.70
2022-09-30T16:30:01.445Z,15.50
2022-09-30T16:32:33.963Z,15.40
2022-09-30T16:35:02.144Z,15.40
2022-09-30T16:37:30.561Z,15.20
2022-09-30T16:40:09.572Z,15.00
2022-09-30T16:42:37.619Z,14.90
2022-09-30T16:45:08.113Z,14.80
2022-09-30T16:47:38.961Z,14.70
2022-09-30T16:50:18.025Z,14.70
2022-09-30T16:52:45.999Z,14.60
2022-09-30T16:57:48.210Z,14.30
2022-09-30T17:00:18.409Z,14.20
2022-09-30T17:02:48.228Z,14.00
2022-09-30T17:05:18.692Z,13.90
2022-09-30T17:07:47.422Z,13.80
2022-09-30T17:10:21.272Z,13.70
2022-09-30T17:12:50.286Z,13.60
2022-09-30T17:15:21.054Z,13.60
2022-09-30T17:17:49.551Z,13.50
2022-09-30T17:20:17.815Z,13.60
2022-09-30T17:22:46.630Z,13.50
2022-09-30T17:25:15.131Z,13.40
2022-09-30T17:27:43.328Z,13.40
2022-09-30T17:30:12.351Z,13.40
2022-09-30T17:32:42.397Z,13.10
2022-09-30T17:35:11.170Z,13.20
2022-09-30T17:37:42.467Z,12.80
2022-09-30T17:40:31.272Z,12.70
2022-09-30T17:43:08.581Z,12.70
2022-09-30T17:45:37.462Z,12.70
2022-09-30T17:48:09.068Z,12.70
2022-09-30T17:50:38.137Z,12.60
2022-09-30T17:53:07.797Z,12.70
2022-09-30T17:55:36.397Z,12.60
2022-09-30T17:58:04.508Z,12.50
2022-09-30T18:00:33.586Z,12.50
2022-09-30T18:03:03.036Z,12.50
2022-09-30T18:05:33.277Z,12.60
2022-09-30T18:08:01.605Z,12.40
2022-09-30T18:10:29.737Z,12.30
2022-09-30T18:12:59.713Z,12.00
2022-09-30T18:15:28.293Z,11.90
2022-09-30T18:17:56.302Z,11.90
2022-09-30T18:20:25.596Z,11.80
2022-09-30T18:22:55.205Z,11.70
2022-09-30T18:25:23.723Z,11.70
2022-09-30T18:27:53.680Z,11.60
2022-09-30T18:30:21.854Z,11.60
2022-09-30T18:32:50.605Z,11.60
2022-09-30T18:35:20.444Z,11.60
2022-09-30T18:37:49.808Z,11.50
2022-09-30T18:40:21.018Z,11.50
2022-09-30T18:42:49.545Z,11.50
2022-09-30T18:45:17.668Z,11.60
2022-09-30T18:47:45.907Z,11.60
2022-09-30T18:50:17.305Z,11.60
2022-09-30T18:52:45.405Z,11.50
2022-09-30T18:55:13.440Z,11.50
2022-09-30T18:57:43.160Z,11.50
2022-09-30T19:00:11.887Z,11.40
2022-09-30T19:02:40.876Z,11.40
2022-09-30T19:05:09.280Z,11.20
2022-09-30T19:07:38.561Z,11.60
2022-09-30T19:10:07.737Z,11.40
2022-09-30T19:12:36.799Z,11.40
2022-09-30T19:15:08.588Z,11.30
2022-09-30T19:17:37.516Z,11.40
2022-09-30T19:20:07.537Z,11.30
2022-09-30T19:22:37.268Z,11.10
2022-09-30T19:25:06.313Z,11.00
2022-09-30T19:27:38.408Z,11.00
2022-09-30T19:30:09.942Z,11.00
2022-09-30T19:32:37.955Z,11.00
2022-09-30T19:35:10.170Z,11.00
2022-09-30T19:37:38.309Z,11.10
2022-09-30T19:40:20.039Z,11.00
2022-09-30T19:42:49.620Z,10.80
2022-09-30T19:45:24.151Z,10.70
2022-09-30T19:47:53.242Z,10.60
2022-09-30T19:50:21.431Z,10.70
2022-09-30T19:52:57.041Z,10.60
2022-09-30T19:55:25.850Z,10.60
2022-09-30T19:57:53.919Z,10.60
2022-09-30T20:00:23.275Z,10.60
2022-09-30T20:02:52.693Z,10.30
2022-09-30T20:05:21.586Z,10.20
2022-09-30T20:07:51.125Z,10.20
2022-09-30T20:10:19.564Z,10.20
2022-09-30T20:12:47.645Z,10.20
2022-09-30T20:15:33.273Z,10.20
2022-09-30T20:18:02.953Z,10.30
2022-09-30T20:20:37.285Z,10.30
2022-09-30T20:23:05.634Z,10.40
2022-09-30T20:25:35.701Z,10.40
2022-09-30T20:28:05.135Z,10.40
2022-09-30T20:30:34.114Z,10.50
2022-09-30T20:33:05.517Z,10.40
2022-09-30T20:35:36.406Z,10.40
2022-09-30T20:38:04.793Z,10.30
2022-09-30T20:40:34.382Z,10.20
2022-09-30T20:43:03.635Z,10.20
2022-09-30T20:45:31.744Z,10.30
2022-09-30T20:47:59.777Z,10.20
2022-09-30T20:50:38.546Z,10.20
2022-09-30T20:53:09.116Z,10.00
2022-09-30T20:55:38.887Z,10.10
2022-09-30T20:58:07.915Z,10.10
2022-09-30T21:00:38.502Z,10.10
2022-09-30T21:03:08.125Z,10.00
2022-09-30T21:05:37.810Z,9.90
2022-09-30T21:08:07.354Z,10.10
2022-09-30T21:10:37.165Z,10.10
2022-09-30T21:13:10.161Z,9.90
2022-09-30T21:15:38.198Z,10.00
2022-09-30T21:18:06.498Z,10.00
2022-09-30T21:20:34.634Z,10.10
2022-09-30T21:23:04.200Z,10.00
2022-09-30T21:25:32.842Z,10.00
2022-09-30T21:28:00.995Z,10.00
2022-09-30T21:30:29.249Z,9.90
2022-09-30T21:32:57.373Z,9.90
2022-09-30T21:35:25.393Z,9.80
2022-09-30T21:37:53.410Z,9.90
2022-09-30T21:40:22.794Z,9.80
2022-09-30T21:42:50.900Z,9.80
2022-09-30T21:45:20.162Z,9.80
2022-09-30T21:47:48.255Z,9.60
2022-09-30T21:50:16.479Z,9.60
2022-09-30T21:52:44.469Z,9.60
2022-09-30T21:55:13.378Z,9.60
2022-09-30T21:57:43.382Z,9.60
2022-09-30T22:00:12.385Z,9.60
2022-09-30T22:02:40.683Z,9.50
2022-09-30T22:05:09.839Z,9.60
2022-09-30T22:07:38.919Z,9.50
2022-09-30T22:10:09.068Z,9.50
2022-09-30T22:12:37.071Z,9.50
2022-09-30T22:15:07.528Z,9.40
2022-09-30T22:17:35.553Z,9.50
2022-09-30T22:20:03.536Z,9.40
2022-09-30T22:22:31.557Z,9.50
2022-09-30T22:24:59.612Z,9.40
2022-09-30T22:27:28.090Z,9.50
2022-09-30T22:29:56.239Z,9.40
2022-09-30T22:32:25.686Z,9.40
2022-09-30T22:35:11.307Z,9.20
2022-09-30T22:38:01.912Z,9.10
2022-09-30T22:40:30.043Z,9.10
2022-09-30T22:42:58.400Z,9.00
2022-09-30T22:45:26.835Z,9.00
2022-09-30T22:47:57.002Z,9.00
2022-09-30T22:50:28.743Z,9.00
2022-09-30T22:52:57.587Z,9.00
2022-09-30T22:55:26.084Z,8.90
2022-09-30T22:57:54.138Z,8.90
2022-09-30T23:00:22.248Z,8.70
2022-09-30T23:02:52.890Z,8.80
2022-09-30T23:05:22.391Z,8.80
2022-09-30T23:07:50.472Z,8.70
2022-09-30T23:10:18.544Z,8.80
2022-09-30T23:12:46.708Z,8.80
2022-09-30T23:15:14.875Z,8.70
2022-09-30T23:17:43.204Z,8.80
2022-09-30T23:20:11.463Z,8.80
2022-09-30T23:22:41.048Z,8.70
2022-09-30T23:25:10.252Z,8.70
2022-09-30T23:27:38.419Z,8.70
2022-09-30T23:30:07.576Z,8.70
2022-09-30T23:32:35.635Z,8.70
2022-09-30T23:35:04.140Z,8.70
2022-09-30T23:37:32.218Z,8.60
2022-09-30T23:40:02.102Z,8.70
2022-09-30T23:42:32.075Z,8.60
2022-09-30T23:45:00.113Z,8.60
2022-09-30T23:47:28.678Z,8.50
2022-09-30T23:49:58.317Z,8.50
2022-09-30T23:52:26.481Z,8.50
2022-09-30T23:54:54.576Z,8.50
2022-09-30T23:57:24.050Z,8.50
2022-09-30T23:59:52.080Z,8.40
